Urbana, Iowa
Current Conditions -  °F | °C
As of 9:55 PM on Saturday 24 Jan 2015 (Local Time) from KVTI Reporting Station
Clear Clear  
Wind Chill: 38°   Ceiling: Unl
Heat Index: 38°   Visibility: 10mi
Dew Point: 33°   Wind: 3mph
Humidity: 82%   Direction: 170°S
Pressure: 29.59"   Gusts: NA
Location:  42.22°N, 91.87°W
Report Text: KVTI 250355Z AUTO 17003KT 10SM CLR 03/00 A2959 RMK AO2 T00310003
Loading
Personal Weather Stations






























Interactive Weather Map New forecast layout! Learn more

10-Day Weather Forecast

Advertisements
Track Severe Weather on mobile